createdAt,value
2023-05-21T00:04:42.171Z,14.16
2023-05-21T00:09:45.206Z,14.09
2023-05-21T00:14:48.456Z,14.02
2023-05-21T00:19:53.203Z,13.98
2023-05-21T00:24:56.138Z,13.96
2023-05-21T00:29:59.263Z,13.92
2023-05-21T00:35:04.178Z,13.90
2023-05-21T00:40:09.379Z,13.87
2023-05-21T00:45:12.586Z,13.94
2023-05-21T00:50:17.659Z,13.96
2023-05-21T00:55:20.890Z,14.02
2023-05-21T01:00:24.714Z,14.06
2023-05-21T01:05:29.598Z,14.11
2023-05-21T01:10:32.720Z,14.13
2023-05-21T01:15:38.093Z,14.18
2023-05-21T01:20:48.321Z,14.21
2023-05-21T01:25:53.133Z,14.23
2023-05-21T01:30:59.591Z,14.27
2023-05-21T01:36:09.276Z,14.32
2023-05-21T01:41:15.379Z,14.35
2023-05-21T01:46:22.307Z,14.39
2023-05-21T01:51:26.104Z,14.36
2023-05-21T01:56:33.966Z,14.49
2023-05-21T02:01:37.598Z,14.54
2023-05-21T02:06:41.856Z,14.60
2023-05-21T02:11:46.328Z,14.60
2023-05-21T02:16:49.877Z,14.69
2023-05-21T02:21:53.050Z,14.72
2023-05-21T02:26:58.589Z,14.78
2023-05-21T02:32:01.775Z,14.80
2023-05-21T02:37:04.960Z,14.77
2023-05-21T02:42:09.432Z,14.71
2023-05-21T02:47:12.803Z,14.66
2023-05-21T02:52:15.977Z,14.54
2023-05-21T02:57:20.676Z,14.44
2023-05-21T03:02:24.404Z,14.39
2023-05-21T03:07:27.672Z,14.36
2023-05-21T03:12:32.189Z,14.30
2023-05-21T03:17:35.603Z,14.30
2023-05-21T03:22:38.596Z,14.36
2023-05-21T03:27:52.161Z,14.29
2023-05-21T03:33:17.425Z,14.35
2023-05-21T03:38:24.971Z,14.24
2023-05-21T03:43:29.678Z,14.33
2023-05-21T03:48:32.848Z,14.32
2023-05-21T03:53:37.005Z,14.31
2023-05-21T03:58:41.785Z,14.34
2023-05-21T04:03:45.080Z,14.37
2023-05-21T04:08:48.463Z,14.38
2023-05-21T04:13:53.033Z,14.43
2023-05-21T04:18:56.849Z,14.48
2023-05-21T04:24:02.783Z,14.47
2023-05-21T04:29:25.992Z,14.55
2023-05-21T04:34:29.820Z,14.60
2023-05-21T04:39:32.841Z,14.63
2023-05-21T04:44:37.379Z,14.74
2023-05-21T04:49:40.592Z,14.78
2023-05-21T04:54:46.168Z,14.81
2023-05-21T04:59:50.813Z,14.85
2023-05-21T05:04:53.929Z,14.96
2023-05-21T05:09:57.010Z,15.01
2023-05-21T05:15:01.613Z,15.04
2023-05-21T05:20:06.207Z,15.03
2023-05-21T05:25:10.702Z,15.07
2023-05-21T05:30:15.608Z,15.26
2023-05-21T05:35:18.853Z,15.36
2023-05-21T05:40:22.073Z,15.48
2023-05-21T05:45:27.248Z,15.69
2023-05-21T05:50:31.046Z,15.75
2023-05-21T05:55:34.205Z,15.89
2023-05-21T06:00:39.222Z,15.84
2023-05-21T06:05:42.542Z,15.83
2023-05-21T06:10:45.786Z,15.93
2023-05-21T06:15:50.470Z,16.08
2023-05-21T06:20:54.127Z,16.17
2023-05-21T06:25:59.136Z,16.31
2023-05-21T06:31:04.455Z,16.42
2023-05-21T06:36:09.109Z,16.50
2023-05-21T06:41:12.357Z,16.85
2023-05-21T06:46:30.241Z,17.16
2023-05-21T06:51:33.531Z,17.56
2023-05-21T06:56:37.324Z,17.44
2023-05-21T07:01:43.994Z,17.52
2023-05-21T07:06:49.732Z,17.55
2023-05-21T07:11:53.366Z,17.58
2023-05-21T07:16:59.042Z,17.35
2023-05-21T07:22:02.252Z,17.56
2023-05-21T07:27:14.372Z,17.66
2023-05-21T07:32:29.778Z,17.55
2023-05-21T07:37:33.407Z,17.80
2023-05-21T07:42:36.673Z,17.91
2023-05-21T07:47:41.508Z,17.89
2023-05-21T07:52:44.638Z,17.93
2023-05-21T07:57:47.794Z,18.09
2023-05-21T08:02:54.794Z,18.10
2023-05-21T08:07:57.983Z,18.37
2023-05-21T08:13:01.333Z,18.55
2023-05-21T08:18:06.209Z,18.80
2023-05-21T08:23:10.524Z,19.02
2023-05-21T08:28:18.463Z,19.09
2023-05-21T08:33:23.751Z,19.19
2023-05-21T08:38:28.671Z,19.35
2023-05-21T08:43:56.775Z,19.72
2023-05-21T08:49:03.848Z,20.00
2023-05-21T08:54:08.941Z,20.16
2023-05-21T08:59:12.462Z,20.29
2023-05-21T09:04:21.692Z,20.36
2023-05-21T09:09:33.738Z,20.51
2023-05-21T09:14:39.275Z,20.65
2023-05-21T09:20:13.504Z,21.02
2023-05-21T09:25:23.006Z,21.35
2023-05-21T09:30:29.562Z,21.53
2023-05-21T09:35:45.248Z,21.72
2023-05-21T09:40:50.453Z,21.76
2023-05-21T09:45:56.120Z,21.80
2023-05-21T09:51:15.044Z,22.25
2023-05-21T09:56:23.535Z,21.98
2023-05-21T10:01:26.748Z,22.09
2023-05-21T10:06:33.795Z,22.55
2023-05-21T10:11:37.804Z,22.63
2023-05-21T10:16:41.893Z,22.83
2023-05-21T10:21:47.746Z,22.97
2023-05-21T10:26:52.407Z,23.00
2023-05-21T10:31:56.053Z,22.70
2023-05-21T10:37:04.108Z,22.76
2023-05-21T10:42:19.902Z,22.52
2023-05-21T10:47:48.717Z,22.65
2023-05-21T10:53:09.962Z,22.94
2023-05-21T10:58:45.446Z,23.36
2023-05-21T11:03:49.132Z,23.02
2023-05-21T11:08:55.477Z,23.40
2023-05-21T11:13:59.814Z,23.88
2023-05-21T11:19:03.743Z,24.21
2023-05-21T11:24:11.099Z,23.89
2023-05-21T11:29:14.840Z,23.78
2023-05-21T11:34:21.923Z,24.04
2023-05-21T11:39:27.050Z,24.52
2023-05-21T11:44:50.947Z,24.31
2023-05-21T11:49:54.270Z,24.06
2023-05-21T11:55:00.061Z,24.11
2023-05-21T12:00:12.787Z,24.62
2023-05-21T12:05:16.020Z,24.31
2023-05-21T12:10:24.351Z,23.87
2023-05-21T12:15:28.153Z,23.93
2023-05-21T12:20:31.297Z,23.86
2023-05-21T12:25:35.717Z,24.31
2023-05-21T12:30:39.479Z,24.64
2023-05-21T12:35:42.533Z,24.62
2023-05-21T12:40:46.972Z,24.84
2023-05-21T12:45:50.021Z,24.82
2023-05-21T12:50:53.664Z,24.78
2023-05-21T12:56:09.282Z,24.74
2023-05-21T13:01:13.412Z,24.75
2023-05-21T13:06:16.494Z,24.58
2023-05-21T13:11:21.293Z,24.00
2023-05-21T13:16:24.517Z,24.27
2023-05-21T13:21:27.605Z,24.44
2023-05-21T13:26:32.196Z,24.31
2023-05-21T13:31:35.346Z,24.48
2023-05-21T13:36:38.549Z,24.85
2023-05-21T13:41:43.870Z,24.53
2023-05-21T13:46:47.019Z,24.63
2023-05-21T13:51:50.023Z,24.79
2023-05-21T13:56:54.664Z,24.53
2023-05-21T14:01:58.232Z,24.38
2023-05-21T14:07:01.346Z,24.45
2023-05-21T14:12:06.861Z,24.39
2023-05-21T14:17:10.031Z,24.40
2023-05-21T14:22:13.345Z,24.35
2023-05-21T14:27:18.028Z,24.63
2023-05-21T14:32:21.762Z,24.49
2023-05-21T14:37:24.928Z,24.48
2023-05-21T14:42:30.276Z,24.36
2023-05-21T14:47:33.880Z,24.38
2023-05-21T14:52:36.898Z,24.19
2023-05-21T14:57:41.474Z,24.09
2023-05-21T15:02:44.979Z,24.02
2023-05-21T15:07:48.407Z,23.84
2023-05-21T15:12:53.121Z,23.65
2023-05-21T15:17:57.801Z,23.60
2023-05-21T15:28:08.821Z,23.52
2023-05-21T15:33:12.863Z,23.45
2023-05-21T15:38:15.912Z,23.42
2023-05-21T15:43:20.349Z,23.33
2023-05-21T15:48:23.538Z,23.39
2023-05-21T15:53:26.580Z,23.39
2023-05-21T15:58:31.551Z,23.34
2023-05-21T16:03:34.808Z,23.31
2023-05-21T16:08:38.353Z,23.53
2023-05-21T16:13:42.800Z,23.45
2023-05-21T16:18:45.903Z,23.43
2023-05-21T16:23:50.505Z,23.43
2023-05-21T16:28:55.387Z,23.27
2023-05-21T16:33:58.445Z,23.39
2023-05-21T16:39:01.619Z,23.41
2023-05-21T16:44:06.176Z,23.02
2023-05-21T16:49:09.625Z,23.30
2023-05-21T16:54:12.787Z,23.20
2023-05-21T16:59:18.428Z,23.30
2023-05-21T17:04:21.664Z,23.16
2023-05-21T17:09:24.826Z,23.08
2023-05-21T17:19:35.735Z,22.86
2023-05-21T17:24:41.754Z,23.09
2023-05-21T17:29:46.648Z,23.24
2023-05-21T17:34:50.208Z,23.20
2023-05-21T17:39:53.421Z,23.05
2023-05-21T17:44:58.080Z,23.01
2023-05-21T17:50:01.107Z,22.69
2023-05-21T17:55:04.665Z,22.40
2023-05-21T18:00:10.714Z,22.28
2023-05-21T18:05:16.930Z,22.28
2023-05-21T18:10:20.416Z,22.18
2023-05-21T18:15:24.881Z,21.96
2023-05-21T18:20:28.106Z,21.84
2023-05-21T18:25:31.488Z,21.71
2023-05-21T18:30:36.183Z,21.65
2023-05-21T18:35:39.809Z,21.25
2023-05-21T18:40:42.906Z,21.08
2023-05-21T18:45:48.697Z,20.95
2023-05-21T18:50:53.420Z,20.78
2023-05-21T18:55:56.490Z,20.67
2023-05-21T19:01:01.594Z,20.49
2023-05-21T19:06:05.676Z,20.30
2023-05-21T19:11:08.943Z,20.08
2023-05-21T19:16:13.431Z,19.84
2023-05-21T19:21:16.672Z,19.76
2023-05-21T19:26:19.709Z,19.60
2023-05-21T19:31:25.401Z,19.53
2023-05-21T19:36:34.991Z,19.34
2023-05-21T19:41:45.223Z,19.18
2023-05-21T19:46:50.537Z,19.03
2023-05-21T19:51:54.893Z,18.87
2023-05-21T19:56:58.692Z,18.83
2023-05-21T20:02:03.138Z,18.71
2023-05-21T20:07:06.557Z,18.57
2023-05-21T20:12:10.376Z,18.48
2023-05-21T20:17:15.655Z,18.43
2023-05-21T20:22:18.884Z,18.29
2023-05-21T20:27:22.069Z,18.23
2023-05-21T20:32:27.077Z,18.15
2023-05-21T20:37:32.443Z,17.99
2023-05-21T20:42:36.524Z,17.97
2023-05-21T20:47:41.318Z,17.83
2023-05-21T20:52:47.139Z,17.77
2023-05-21T20:57:50.931Z,17.61
2023-05-21T21:02:58.069Z,17.42
2023-05-21T21:08:02.582Z,17.24
2023-05-21T21:13:07.246Z,17.01
2023-05-21T21:18:12.593Z,16.94
2023-05-21T21:23:16.183Z,16.87
2023-05-21T21:28:19.808Z,16.64
2023-05-21T21:33:24.655Z,16.54
2023-05-21T21:38:27.882Z,16.43
2023-05-21T21:43:30.889Z,16.30
2023-05-21T21:48:35.510Z,16.22
2023-05-21T21:53:38.528Z,16.04
2023-05-21T21:58:41.561Z,15.84
2023-05-21T22:03:46.045Z,15.70
2023-05-21T22:08:49.244Z,15.70
2023-05-21T22:13:53.791Z,15.56
2023-05-21T22:18:59.095Z,15.51
2023-05-21T22:24:02.093Z,15.46
2023-05-21T22:29:05.222Z,15.40
2023-05-21T22:34:09.700Z,15.34
2023-05-21T22:39:12.816Z,15.29
2023-05-21T22:44:15.967Z,15.18
2023-05-21T22:49:21.098Z,15.13
2023-05-21T22:54:24.196Z,15.09
2023-05-21T22:59:27.284Z,14.94
2023-05-21T23:04:43.416Z,14.92
2023-05-21T23:09:47.940Z,14.86
2023-05-21T23:14:51.209Z,14.80
2023-05-21T23:19:56.310Z,14.80
2023-05-21T23:24:59.481Z,14.78
2023-05-21T23:30:02.455Z,14.77
2023-05-21T23:35:08.395Z,14.80
2023-05-21T23:40:12.862Z,14.85
2023-05-21T23:45:17.289Z,14.86
2023-05-21T23:50:21.618Z,14.81
2023-05-21T23:55:24.588Z,14.80
